Time;durP1;ratioP1;P1;durP2;ratioP2;P2;SDS_P1;SDS_P2;PMS_P1;PMS_P2;Temp;Humidity;BMP_temperature;BMP_pressure;BME280_temperature;BME280_humidity;BME280_pressure;Samples;Min_cycle;Max_cycle;Signal;HPM_P1;HPM_P2
2021/01/02 00:02:40;;;;;;;17.35;11.90;;;6.30;99.90;;;;;;5080557;28;20630;-80
2021/01/02 00:05:09;;;;;;;17.20;12.45;;;6.40;99.90;;;;;;5080383;28;20193;-78
2021/01/02 00:08:06;;;;;;;19.45;12.75;;;6.30;99.90;;;;;;5080941;28;20205;-81
2021/01/02 00:10:41;;;;;;;14.05;11.10;;;6.30;99.90;;;;;;5075423;28;20202;-82
2021/01/02 00:13:29;;;;;;;15.13;11.35;;;6.30;99.90;;;;;;5082297;28;20195;-80
2021/01/02 00:16:14;;;;;;;14.35;10.95;;;6.30;99.90;;;;;;5039435;28;20194;-81
2021/01/02 00:18:55;;;;;;;15.68;12.77;;;6.30;99.90;;;;;;5079148;28;20193;-80
2021/01/02 00:21:26;;;;;;;15.27;12.25;;;6.30;99.90;;;;;;5085862;28;20193;-80
2021/01/02 00:24:23;;;;;;;16.45;11.85;;;6.30;99.90;;;;;;5075346;28;20194;-77
2021/01/02 00:27:15;;;;;;;13.27;11.73;;;6.30;99.90;;;;;;5094519;28;20205;-78
2021/01/02 00:30:05;;;;;;;17.77;12.95;;;6.30;99.90;;;;;;5076964;28;20283;-78
2021/01/02 00:32:56;;;;;;;15.63;11.57;;;6.20;99.90;;;;;;5087516;28;20194;-78
2021/01/02 00:35:23;;;;;;;15.65;12.43;;;6.20;99.90;;;;;;5078522;28;20194;-78
2021/01/02 00:38:02;;;;;;;15.13;11.77;;;6.30;99.90;;;;;;5074488;28;20700;-80
2021/01/02 00:40:29;;;;;;;15.85;11.75;;;6.30;99.90;;;;;;5082263;28;20191;-80
2021/01/02 00:42:55;;;;;;;14.25;11.77;;;6.30;99.90;;;;;;5075050;28;20198;-79
2021/01/02 00:45:24;;;;;;;21.67;12.10;;;6.30;99.90;;;;;;5077337;28;20200;-83
2021/01/02 00:47:51;;;;;;;15.73;11.40;;;6.30;99.90;;;;;;5082608;28;20209;-83
2021/01/02 00:50:18;;;;;;;16.10;12.60;;;6.30;99.90;;;;;;5083418;28;20209;-80
2021/01/02 00:53:31;;;;;;;15.52;11.32;;;6.30;99.90;;;;;;5084859;28;20201;-80
2021/01/02 00:56:27;;;;;;;18.83;12.07;;;6.30;99.90;;;;;;5075995;28;20198;-84
2021/01/02 00:59:27;;;;;;;19.85;12.70;;;6.30;99.90;;;;;;5084349;28;20194;-81
2021/01/02 01:02:26;;;;;;;14.25;11.50;;;6.30;99.90;;;;;;5082153;28;20190;-82
2021/01/02 01:05:20;;;;;;;14.80;12.13;;;6.30;99.90;;;;;;5060076;28;20198;-82
2021/01/02 01:07:52;;;;;;;14.40;12.35;;;6.30;99.90;;;;;;5072126;28;20281;-82
2021/01/02 01:10:22;;;;;;;14.48;11.95;;;6.30;99.90;;;;;;5083175;28;20198;-82
2021/01/02 01:12:57;;;;;;;17.02;12.65;;;6.30;99.90;;;;;;5077659;28;20198;-82
2021/01/02 01:15:24;;;;;;;16.45;12.45;;;6.30;99.90;;;;;;5073940;28;20239;-82
2021/01/02 01:18:12;;;;;;;22.17;13.68;;;6.40;99.90;;;;;;5088758;28;20520;-82
2021/01/02 01:20:44;;;;;;;14.13;11.85;;;6.40;99.90;;;;;;5085710;28;20193;-82
2021/01/02 01:23:25;;;;;;;15.65;11.77;;;6.40;99.90;;;;;;5077109;28;20182;-82
2021/01/02 01:26:06;;;;;;;18.30;13.25;;;6.30;99.90;;;;;;5076988;28;20191;-81
2021/01/02 01:28:37;;;;;;;16.05;10.90;;;6.30;99.90;;;;;;5077337;28;20222;-81
2021/01/02 01:31:05;;;;;;;16.98;12.82;;;6.30;99.90;;;;;;5073739;28;20224;-80
2021/01/02 01:33:31;;;;;;;14.88;12.35;;;6.30;99.90;;;;;;5074323;28;20622;-83
2021/01/02 01:36:01;;;;;;;16.33;13.70;;;6.30;99.90;;;;;;5073730;28;20190;-81
2021/01/02 01:38:28;;;;;;;15.10;11.82;;;6.30;99.90;;;;;;5073606;28;20229;-83
2021/01/02 01:41:02;;;;;;;17.33;12.15;;;6.30;99.90;;;;;;5080260;28;20201;-80
2021/01/02 01:43:59;;;;;;;13.60;11.68;;;6.30;99.90;;;;;;5087454;28;20190;-83
2021/01/02 01:46:32;;;;;;;19.17;15.10;;;6.40;99.90;;;;;;5091332;28;20197;-83
2021/01/02 01:49:07;;;;;;;16.13;13.15;;;6.40;99.90;;;;;;5078466;28;20311;-82
2021/01/02 01:51:55;;;;;;;17.60;12.27;;;6.40;99.90;;;;;;5073631;28;20284;-81
2021/01/02 01:54:49;;;;;;;15.77;11.43;;;6.40;99.90;;;;;;5073490;28;20206;-82
2021/01/02 01:57:22;;;;;;;16.75;11.80;;;6.30;99.90;;;;;;5092541;28;20185;-82
2021/01/02 02:00:11;;;;;;;17.90;12.85;;;6.40;99.90;;;;;;5074223;28;20303;-82
2021/01/02 02:03:04;;;;;;;14.52;12.50;;;6.30;99.90;;;;;;5073093;28;20224;-82
2021/01/02 02:05:48;;;;;;;16.73;13.77;;;6.30;99.90;;;;;;5073149;28;20202;-82
2021/01/02 02:08:15;;;;;;;15.07;11.77;;;6.50;99.90;;;;;;5076624;28;20613;-83
2021/01/02 02:10:45;;;;;;;16.77;13.02;;;6.30;99.90;;;;;;5072851;28;20190;-82
2021/01/02 02:13:14;;;;;;;15.50;12.25;;;6.30;99.90;;;;;;5079988;28;20202;-82
2021/01/02 02:15:50;;;;;;;16.42;12.00;;;6.30;99.90;;;;;;5076901;28;20259;-82
2021/01/02 02:18:21;;;;;;;15.00;12.05;;;6.30;99.90;;;;;;5089676;28;20246;-82
2021/01/02 02:20:50;;;;;;;16.60;13.95;;;6.30;99.90;;;;;;5082482;28;20198;-82
2021/01/02 02:23:23;;;;;;;17.50;13.40;;;6.30;99.90;;;;;;5072956;28;20202;-82
2021/01/02 02:25:59;;;;;;;19.88;13.43;;;6.30;99.90;;;;;;5072692;28;20638;-81
2021/01/02 02:29:06;;;;;;;15.15;12.15;;;6.30;99.90;;;;;;5078929;28;20206;-82
2021/01/02 02:31:33;;;;;;;14.15;11.73;;;6.30;99.90;;;;;;5079889;28;20196;-81
2021/01/02 02:34:01;;;;;;;19.02;12.57;;;6.30;99.90;;;;;;5072487;28;20297;-80
2021/01/02 02:36:29;;;;;;;16.35;12.60;;;6.30;99.90;;;;;;5074172;28;20198;-81
2021/01/02 02:38:58;;;;;;;18.45;14.77;;;6.40;99.90;;;;;;5074068;28;20569;-82
2021/01/02 02:41:29;;;;;;;17.30;12.40;;;6.30;99.90;;;;;;5083201;28;20190;-80
2021/01/02 02:44:00;;;;;;;16.40;13.20;;;6.20;99.90;;;;;;5073349;28;20197;-80
2021/01/02 02:46:29;;;;;;;15.80;13.40;;;6.30;99.90;;;;;;5083212;28;20193;-85
2021/01/02 02:48:59;;;;;;;19.70;14.15;;;6.30;99.90;;;;;;5086021;28;20225;-81
2021/01/02 02:51:30;;;;;;;15.75;12.55;;;6.30;99.90;;;;;;5089699;28;20661;-81
2021/01/02 02:53:57;;;;;;;16.02;13.07;;;6.30;99.90;;;;;;5079425;28;20190;-82
2021/01/02 02:56:23;;;;;;;16.58;12.93;;;6.30;99.90;;;;;;5088683;28;20208;-81
2021/01/02 02:58:52;;;;;;;19.15;13.40;;;6.30;99.90;;;;;;5074414;28;20198;-81
2021/01/02 03:01:19;;;;;;;16.77;12.90;;;6.30;99.90;;;;;;5075590;28;20281;-82
2021/01/02 03:03:45;;;;;;;16.50;13.90;;;6.30;99.90;;;;;;5075121;28;20198;-81
2021/01/02 03:06:12;;;;;;;18.20;13.80;;;6.30;99.90;;;;;;5072553;28;20205;-83
2021/01/02 03:08:38;;;;;;;17.33;12.05;;;6.30;99.90;;;;;;5086577;28;20276;-86
2021/01/02 03:11:06;;;;;;;19.52;13.70;;;6.30;99.90;;;;;;5089565;28;20207;-82
2021/01/02 03:13:40;;;;;;;18.88;12.63;;;6.30;99.90;;;;;;5082899;28;20202;-84
2021/01/02 03:16:07;;;;;;;15.75;12.27;;;6.30;99.90;;;;;;5086909;28;20192;-85
2021/01/02 03:18:34;;;;;;;18.92;15.07;;;6.30;99.90;;;;;;5088121;28;20190;-81
2021/01/02 03:21:00;;;;;;;16.95;13.40;;;6.30;99.90;;;;;;5078434;28;20198;-84
2021/01/02 03:23:27;;;;;;;18.42;14.63;;;6.40;99.90;;;;;;5071665;28;20198;-80
2021/01/02 03:25:53;;;;;;;16.92;13.23;;;6.30;99.90;;;;;;5071818;28;20202;-84
2021/01/02 03:28:19;;;;;;;14.27;12.75;;;6.40;99.90;;;;;;5071932;28;20573;-83
2021/01/02 03:30:45;;;;;;;16.27;13.23;;;6.40;99.90;;;;;;5072447;28;20190;-82
2021/01/02 03:33:12;;;;;;;20.02;14.55;;;6.30;99.90;;;;;;5086100;28;20201;-81
2021/01/02 03:35:39;;;;;;;19.08;13.88;;;6.30;99.90;;;;;;5093203;28;20190;-80
2021/01/02 03:38:05;;;;;;;18.95;13.93;;;6.40;99.90;;;;;;5075642;28;20234;-82
2021/01/02 03:40:31;;;;;;;19.70;14.35;;;6.40;99.90;;;;;;5085732;28;20197;-80
2021/01/02 03:42:57;;;;;;;18.20;13.63;;;6.30;99.90;;;;;;5082897;28;20204;-87
2021/01/02 03:45:24;;;;;;;18.95;13.02;;;6.30;99.90;;;;;;5079375;28;20198;-84
2021/01/02 03:47:51;;;;;;;18.33;13.57;;;6.30;99.90;;;;;;5083756;28;20258;-86
2021/01/02 03:50:18;;;;;;;20.40;13.45;;;6.40;99.90;;;;;;5092618;28;20198;-86
2021/01/02 03:52:45;;;;;;;14.82;12.23;;;6.40;99.90;;;;;;5077288;28;20776;-83
2021/01/02 03:55:13;;;;;;;20.45;14.13;;;6.40;99.90;;;;;;5075905;28;20194;-84
2021/01/02 03:57:39;;;;;;;21.25;14.80;;;6.40;99.90;;;;;;5076576;28;20202;-81
2021/01/02 04:00:07;;;;;;;18.20;14.60;;;6.30;99.90;;;;;;5091476;28;20198;-82
2021/01/02 04:02:33;;;;;;;17.02;13.23;;;6.40;99.90;;;;;;5092961;28;20193;-83
2021/01/02 04:05:00;;;;;;;19.05;12.45;;;6.40;99.90;;;;;;5090138;28;20202;-81
2021/01/02 04:07:26;;;;;;;16.92;13.13;;;6.40;99.90;;;;;;5095300;28;20201;-82
2021/01/02 04:09:54;;;;;;;19.73;14.68;;;6.30;99.90;;;;;;5083806;28;20534;-83
2021/01/02 04:12:20;;;;;;;17.80;13.52;;;6.40;99.90;;;;;;5094981;28;20244;-88
2021/01/02 04:14:46;;;;;;;17.77;12.40;;;6.40;99.90;;;;;;5092536;28;20232;-87
2021/01/02 04:17:13;;;;;;;16.05;12.32;;;6.30;99.90;;;;;;5094469;28;20202;-86
2021/01/02 04:19:39;;;;;;;19.33;14.63;;;6.40;99.90;;;;;;5087682;28;20198;-87
2021/01/02 04:22:05;;;;;;;18.40;13.82;;;6.40;99.90;;;;;;5080209;28;20254;-81
2021/01/02 04:24:31;;;;;;;17.80;12.68;;;6.30;99.90;;;;;;5075550;28;20665;-82
2021/01/02 04:26:59;;;;;;;19.23;13.95;;;6.40;99.90;;;;;;5092922;28;20198;-82
2021/01/02 04:29:26;;;;;;;17.17;13.75;;;6.40;99.90;;;;;;5090035;28;20210;-81
2021/01/02 04:31:55;;;;;;;18.85;13.35;;;6.40;99.90;;;;;;5080072;28;20198;-83
2021/01/02 04:34:22;;;;;;;18.10;14.02;;;6.30;99.90;;;;;;5086582;28;20198;-84
2021/01/02 04:36:49;;;;;;;19.05;14.50;;;6.30;99.90;;;;;;5075451;28;20291;-83
2021/01/02 04:39:16;;;;;;;19.55;12.88;;;6.30;99.90;;;;;;5086809;28;20211;-83
2021/01/02 04:41:42;;;;;;;19.85;15.35;;;6.30;99.90;;;;;;5094480;28;20197;-84
2021/01/02 04:44:10;;;;;;;17.38;13.27;;;6.30;99.90;;;;;;5076085;28;20297;-83
2021/01/02 04:46:37;;;;;;;21.08;14.25;;;6.30;99.90;;;;;;5094048;28;20201;-83
2021/01/02 04:49:05;;;;;;;14.88;12.20;;;6.40;99.90;;;;;;5081897;28;20680;-81
2021/01/02 04:51:31;;;;;;;22.90;13.82;;;6.30;99.90;;;;;;5074499;28;20210;-80
2021/01/02 04:54:00;;;;;;;21.23;14.02;;;6.40;99.90;;;;;;5074801;28;20630;-80
2021/01/02 04:56:27;;;;;;;17.15;12.40;;;6.40;99.90;;;;;;5078870;28;20198;-82
2021/01/02 04:59:31;;;;;;;18.13;13.70;;;6.30;99.90;;;;;;5080673;28;20271;-82
2021/01/02 05:02:00;;;;;;;20.70;13.68;;;6.30;99.90;;;;;;5090773;28;20204;-87
2021/01/02 05:04:26;;;;;;;17.55;13.88;;;6.30;99.90;;;;;;5084927;28;20201;-87
2021/01/02 05:06:52;;;;;;;19.45;13.40;;;6.30;99.90;;;;;;5095094;28;20194;-87
2021/01/02 05:09:18;;;;;;;20.70;15.32;;;6.30;99.90;;;;;;5094926;28;20224;-87
2021/01/02 05:11:45;;;;;;;24.35;14.77;;;6.30;99.90;;;;;;5080219;28;20198;-87
2021/01/02 05:14:11;;;;;;;16.77;12.32;;;6.30;99.90;;;;;;5076437;28;20206;-87
2021/01/02 05:16:38;;;;;;;17.60;11.82;;;6.20;99.90;;;;;;5078047;28;20206;-87
2021/01/02 05:19:08;;;;;;;21.73;15.82;;;6.30;99.90;;;;;;5092905;28;20189;-88
2021/01/02 05:21:35;;;;;;;18.00;13.90;;;6.30;99.90;;;;;;5084924;28;20204;-86
2021/01/02 05:24:07;;;;;;;19.35;13.80;;;6.30;99.90;;;;;;5083258;28;20525;-87
2021/01/02 05:26:35;;;;;;;17.95;12.05;;;6.40;99.90;;;;;;5076101;28;20405;-87
2021/01/02 05:29:13;;;;;;;22.67;15.55;;;6.30;99.90;;;;;;5076413;28;20214;-86
2021/01/02 05:31:40;;;;;;;17.65;13.88;;;6.40;99.90;;;;;;5079041;28;20206;-84
2021/01/02 05:34:09;;;;;;;17.20;12.10;;;6.40;99.90;;;;;;5080120;28;20238;-84
2021/01/02 05:36:36;;;;;;;18.50;12.50;;;6.40;99.90;;;;;;5074070;28;20213;-82
2021/01/02 05:39:03;;;;;;;21.08;12.23;;;6.40;99.90;;;;;;5073925;28;20208;-84
2021/01/02 05:41:47;;;;;;;17.23;13.27;;;6.40;99.90;;;;;;5077070;28;20201;-82
2021/01/02 05:44:14;;;;;;;18.05;12.70;;;6.40;99.90;;;;;;5089881;28;20193;-81
2021/01/02 05:46:44;;;;;;;15.48;12.48;;;6.30;99.90;;;;;;5088541;28;20198;-82
2021/01/02 05:49:36;;;;;;;14.52;11.05;;;6.30;99.90;;;;;;5082884;28;20213;-86
2021/01/02 05:52:05;;;;;;;16.98;11.40;;;6.40;99.90;;;;;;5089645;28;20221;-82
2021/01/02 05:54:32;;;;;;;19.90;12.70;;;6.40;99.90;;;;;;5084445;28;20212;-82
2021/01/02 05:57:00;;;;;;;16.10;12.60;;;6.40;99.90;;;;;;5088130;28;20202;-82
2021/01/02 05:59:28;;;;;;;16.00;11.05;;;6.40;99.90;;;;;;5085210;28;20194;-81
2021/01/02 06:01:54;;;;;;;16.00;12.48;;;6.30;99.90;;;;;;5086582;28;20202;-81
2021/01/02 06:04:21;;;;;;;16.05;10.65;;;6.30;99.90;;;;;;5075424;28;20221;-80
2021/01/02 06:07:05;;;;;;;14.85;11.52;;;6.40;99.90;;;;;;5081201;28;20197;-81
2021/01/02 06:09:33;;;;;;;14.98;11.38;;;6.40;99.90;;;;;;5078785;28;20270;-81
2021/01/02 06:12:04;;;;;;;16.00;10.50;;;6.40;99.90;;;;;;5083151;28;20207;-81
2021/01/02 06:14:33;;;;;;;13.70;10.70;;;6.30;99.90;;;;;;5088089;28;20205;-79
2021/01/02 06:17:05;;;;;;;15.25;11.07;;;6.30;99.90;;;;;;5076269;28;20549;-80
2021/01/02 06:19:32;;;;;;;15.43;12.02;;;6.30;99.90;;;;;;5081181;28;20186;-83
2021/01/02 06:22:00;;;;;;;15.30;12.55;;;6.30;99.90;;;;;;5077301;28;20205;-82
2021/01/02 06:24:26;;;;;;;14.60;11.45;;;6.30;99.90;;;;;;5081555;28;20193;-82
2021/01/02 06:26:53;;;;;;;13.90;10.57;;;6.30;99.90;;;;;;5082363;28;20198;-83
2021/01/02 06:29:19;;;;;;;16.30;10.85;;;6.30;99.90;;;;;;5081132;28;20224;-85
2021/01/02 06:31:46;;;;;;;14.23;10.90;;;6.30;99.90;;;;;;5078657;28;20638;-86
2021/01/02 06:34:13;;;;;;;16.85;10.27;;;6.30;99.90;;;;;;5082304;28;20201;-85
2021/01/02 06:36:40;;;;;;;14.13;11.35;;;6.30;99.90;;;;;;5081634;28;20209;-85
2021/01/02 06:39:18;;;;;;;14.05;10.32;;;6.30;99.90;;;;;;5080436;28;20198;-85
2021/01/02 06:41:44;;;;;;;11.95;9.77;;;6.30;99.90;;;;;;5079295;28;20190;-84
2021/01/02 06:44:11;;;;;;;15.40;11.88;;;6.30;99.90;;;;;;5080645;28;20202;-81
2021/01/02 06:46:38;;;;;;;16.80;11.80;;;6.30;99.90;;;;;;5076161;28;20300;-84
2021/01/02 06:49:32;;;;;;;17.15;11.00;;;6.30;99.90;;;;;;5076033;28;20214;-82
2021/01/02 06:51:58;;;;;;;14.77;10.10;;;6.30;99.90;;;;;;5074572;28;20271;-80
2021/01/02 06:54:25;;;;;;;13.73;9.45;;;6.40;99.90;;;;;;5084421;28;20617;-80
2021/01/02 06:57:02;;;;;;;14.05;11.35;;;6.40;99.90;;;;;;5084647;28;20545;-80
2021/01/02 06:59:29;;;;;;;12.85;9.52;;;6.30;99.90;;;;;;5076421;28;20202;-85
2021/01/02 07:01:55;;;;;;;15.05;11.35;;;6.30;99.90;;;;;;5076366;28;20662;-84
2021/01/02 07:04:35;;;;;;;19.05;11.90;;;6.30;99.90;;;;;;5084136;28;20197;-84
2021/01/02 07:07:02;;;;;;;14.45;10.93;;;6.30;99.90;;;;;;5076096;28;20684;-85
2021/01/02 07:09:30;;;;;;;16.63;10.60;;;6.30;99.90;;;;;;5079991;28;20244;-84
2021/01/02 07:12:14;;;;;;;17.73;10.60;;;6.20;99.90;;;;;;5076213;28;20190;-85
2021/01/02 07:14:42;;;;;;;16.60;10.75;;;6.20;99.90;;;;;;5075331;28;20194;-85
2021/01/02 07:17:10;;;;;;;12.10;9.70;;;6.30;99.90;;;;;;5082978;28;20207;-84
2021/01/02 07:19:41;;;;;;;19.15;12.57;;;6.30;99.90;;;;;;5075702;28;20191;-85
2021/01/02 07:22:09;;;;;;;16.17;11.13;;;6.30;99.90;;;;;;5076910;28;20194;-85
2021/01/02 07:24:42;;;;;;;16.35;10.63;;;6.30;99.90;;;;;;5081124;28;20198;-85
2021/01/02 07:27:10;;;;;;;14.40;10.50;;;6.30;99.90;;;;;;5079759;28;20198;-84
2021/01/02 07:29:38;;;;;;;15.40;12.30;;;6.30;99.90;;;;;;5083067;28;20217;-84
2021/01/02 07:32:09;;;;;;;14.65;9.98;;;6.30;99.90;;;;;;5077247;28;20207;-85
2021/01/02 07:34:36;;;;;;;14.52;10.82;;;6.30;99.90;;;;;;5083798;28;20197;-84
2021/01/02 07:37:05;;;;;;;15.13;11.02;;;6.30;99.90;;;;;;5080498;28;20225;-79
2021/01/02 07:39:31;;;;;;;11.60;9.15;;;6.30;99.90;;;;;;5073825;28;20280;-81
2021/01/02 07:42:04;;;;;;;15.27;10.70;;;6.40;99.90;;;;;;5078443;28;20205;-81
2021/01/02 07:44:30;;;;;;;17.23;11.82;;;6.30;99.90;;;;;;5084111;28;20209;-81
2021/01/02 07:46:56;;;;;;;14.32;11.00;;;6.30;99.90;;;;;;5080259;28;20197;-82
2021/01/02 07:49:23;;;;;;;12.95;10.35;;;6.30;99.90;;;;;;5081210;28;20214;-82
2021/01/02 07:51:50;;;;;;;16.60;11.00;;;6.30;99.90;;;;;;5082792;28;20198;-81
2021/01/02 07:54:30;;;;;;;13.23;10.30;;;6.20;99.90;;;;;;5083557;28;20249;-83
2021/01/02 07:56:56;;;;;;;12.82;9.02;;;6.30;99.90;;;;;;5077438;28;20903;-81
2021/01/02 07:59:25;;;;;;;13.52;11.07;;;6.30;99.90;;;;;;5078830;28;20198;-82
2021/01/02 08:01:53;;;;;;;15.70;11.65;;;6.30;99.90;;;;;;5080814;28;20197;-82
2021/01/02 08:04:20;;;;;;;13.13;10.10;;;6.30;99.90;;;;;;5083369;28;20210;-82
2021/01/02 08:06:48;;;;;;;10.60;8.90;;;6.30;99.90;;;;;;5083972;28;20201;-81
2021/01/02 08:09:15;;;;;;;15.55;11.25;;;6.30;99.90;;;;;;5080426;28;20237;-80
2021/01/02 08:12:03;;;;;;;13.68;10.15;;;6.30;99.90;;;;;;5080931;28;20198;-80
2021/01/02 08:14:32;;;;;;;13.65;9.93;;;6.30;99.90;;;;;;5075134;28;20738;-82
2021/01/02 08:17:06;;;;;;;14.82;10.70;;;6.40;99.90;;;;;;5078701;28;20190;-83
2021/01/02 08:19:35;;;;;;;15.35;12.30;;;6.30;99.90;;;;;;5085207;28;20189;-82
2021/01/02 08:22:02;;;;;;;15.82;11.80;;;6.30;99.90;;;;;;5088295;28;20204;-83
2021/01/02 08:24:28;;;;;;;15.68;11.88;;;6.30;99.90;;;;;;5088289;28;20680;-84
2021/01/02 08:26:56;;;;;;;13.18;9.68;;;6.30;99.90;;;;;;5080536;28;20196;-83
2021/01/02 08:29:24;;;;;;;13.20;9.90;;;6.30;99.90;;;;;;5082200;28;20261;-84
2021/01/02 08:31:54;;;;;;;15.50;10.90;;;6.30;99.90;;;;;;5084796;28;20209;-81
2021/01/02 08:34:25;;;;;;;18.20;11.05;;;6.30;99.90;;;;;;5087226;28;20200;-81
2021/01/02 08:36:51;;;;;;;16.70;11.00;;;6.30;99.90;;;;;;5084387;28;20225;-81
2021/01/02 08:39:21;;;;;;;13.45;10.50;;;6.40;99.90;;;;;;5087202;28;20267;-83
2021/01/02 08:41:53;;;;;;;15.30;9.38;;;6.30;99.90;;;;;;5077500;28;20206;-83
2021/01/02 08:44:24;;;;;;;11.55;9.93;;;6.30;99.90;;;;;;5079433;28;20212;-84
2021/01/02 08:46:52;;;;;;;12.27;9.63;;;6.40;99.90;;;;;;5080158;28;20217;-82
2021/01/02 08:49:36;;;;;;;12.93;11.32;;;6.40;99.90;;;;;;5075872;28;20218;-82
2021/01/02 08:52:20;;;;;;;14.55;10.70;;;6.40;99.90;;;;;;5078698;28;20201;-83
2021/01/02 08:54:48;;;;;;;17.35;10.60;;;6.30;99.90;;;;;;5086416;28;20194;-82
2021/01/02 08:57:36;;;;;;;12.73;10.18;;;6.30;99.90;;;;;;5074728;28;20206;-83
2021/01/02 09:00:10;;;;;;;15.98;11.05;;;6.30;99.90;;;;;;5074845;28;20193;-82
2021/01/02 09:02:38;;;;;;;14.05;10.52;;;6.20;99.90;;;;;;5082346;28;20196;-81
2021/01/02 09:05:07;;;;;;;17.85;10.50;;;6.30;99.90;;;;;;5079857;28;20299;-81
2021/01/02 09:07:34;;;;;;;14.73;9.25;;;6.30;99.90;;;;;;5081771;28;20220;-83
2021/01/02 09:10:17;;;;;;;13.13;10.70;;;6.30;99.90;;;;;;5081416;28;20253;-85
2021/01/02 09:12:58;;;;;;;16.10;10.75;;;6.30;99.90;;;;;;5079224;28;20191;-84
2021/01/02 09:15:46;;;;;;;14.98;10.68;;;6.30;99.90;;;;;;5082576;28;20193;-85
2021/01/02 09:18:15;;;;;;;12.40;9.55;;;6.30;99.90;;;;;;5081261;28;20211;-84
2021/01/02 09:20:41;;;;;;;12.20;9.35;;;6.30;99.90;;;;;;5082227;28;20699;-83
2021/01/02 09:23:08;;;;;;;16.52;10.30;;;6.30;99.90;;;;;;5084795;28;20209;-83
2021/01/02 09:25:35;;;;;;;13.65;9.43;;;6.30;99.90;;;;;;5074268;28;20626;-83
2021/01/02 09:28:13;;;;;;;13.95;9.70;;;6.30;99.90;;;;;;5074161;28;20515;-83
2021/01/02 09:30:39;;;;;;;14.63;11.25;;;6.30;99.90;;;;;;5080392;28;20221;-86
2021/01/02 09:33:05;;;;;;;12.27;9.00;;;6.30;99.90;;;;;;5081295;28;20266;-85
2021/01/02 09:35:33;;;;;;;15.00;10.23;;;6.30;99.90;;;;;;5079846;28;20209;-91
2021/01/02 09:37:59;;;;;;;12.93;9.10;;;6.30;99.90;;;;;;5084043;28;20295;-92
2021/01/02 09:40:26;;;;;;;13.07;10.32;;;6.30;99.90;;;;;;5079093;28;20231;-86
2021/01/02 09:42:53;;;;;;;13.77;9.43;;;6.30;99.90;;;;;;5077961;28;20190;-80
2021/01/02 09:45:19;;;;;;;11.20;8.88;;;6.30;99.90;;;;;;5075358;28;20248;-80
2021/01/02 09:47:45;;;;;;;15.10;10.02;;;6.30;99.90;;;;;;5081497;28;20587;-80
2021/01/02 09:50:12;;;;;;;11.82;9.43;;;6.30;99.90;;;;;;5081054;28;20554;-80
2021/01/02 09:52:38;;;;;;;12.77;9.50;;;6.30;99.90;;;;;;5080442;28;20201;-83
2021/01/02 09:55:06;;;;;;;10.68;8.73;;;6.40;99.90;;;;;;5087721;28;20193;-79
2021/01/02 09:57:33;;;;;;;14.15;9.93;;;6.30;99.90;;;;;;5093124;28;20530;-83
2021/01/02 09:59:59;;;;;;;14.50;10.05;;;6.40;99.90;;;;;;5078683;28;20247;-82
2021/01/02 10:02:26;;;;;;;11.98;9.13;;;6.30;99.90;;;;;;5084824;28;20201;-87
2021/01/02 10:04:54;;;;;;;12.77;10.10;;;6.30;99.90;;;;;;5085017;28;20289;-87
2021/01/02 10:07:20;;;;;;;12.60;9.95;;;6.40;99.90;;;;;;5084670;28;20678;-87
2021/01/02 10:09:47;;;;;;;13.25;9.10;;;6.30;99.90;;;;;;5081487;28;20609;-86
2021/01/02 10:12:16;;;;;;;13.88;9.23;;;6.40;99.90;;;;;;5081586;28;20201;-87
2021/01/02 10:14:44;;;;;;;13.75;10.00;;;6.40;99.90;;;;;;5082052;28;20195;-87
2021/01/02 10:17:12;;;;;;;12.27;8.57;;;6.40;99.90;;;;;;5078122;28;20194;-87
2021/01/02 10:19:42;;;;;;;14.23;11.07;;;6.40;99.90;;;;;;5083600;28;20194;-87
2021/01/02 10:22:08;;;;;;;13.63;9.25;;;6.40;99.90;;;;;;5081098;28;20304;-87
2021/01/02 10:24:35;;;;;;;13.18;10.38;;;6.40;99.90;;;;;;5086088;28;20189;-86
2021/01/02 10:27:02;;;;;;;14.20;9.18;;;6.40;99.90;;;;;;5093779;28;20194;-87
2021/01/02 10:29:28;;;;;;;13.65;10.20;;;6.30;99.90;;;;;;5082690;28;20232;-86
2021/01/02 10:31:59;;;;;;;18.35;10.75;;;6.40;99.90;;;;;;5081200;28;20204;-87
2021/01/02 10:34:26;;;;;;;14.85;10.35;;;6.40;99.90;;;;;;5081660;28;20194;-87
2021/01/02 10:36:52;;;;;;;17.63;10.82;;;6.40;99.90;;;;;;5079973;28;20226;-87
2021/01/02 10:39:19;;;;;;;15.02;10.30;;;6.40;99.90;;;;;;5086554;28;20190;-86
2021/01/02 10:41:46;;;;;;;13.02;10.00;;;6.40;99.90;;;;;;5082806;28;20257;-87
2021/01/02 10:44:13;;;;;;;13.90;9.90;;;6.40;99.90;;;;;;5081204;28;20266;-86
2021/01/02 10:46:44;;;;;;;14.48;9.88;;;6.40;99.90;;;;;;5082830;28;20216;-86
2021/01/02 10:49:12;;;;;;;12.25;9.50;;;6.40;99.90;;;;;;5081121;28;20197;-86
2021/01/02 10:51:39;;;;;;;14.10;10.10;;;6.40;99.90;;;;;;5084527;28;20209;-86
2021/01/02 10:54:06;;;;;;;15.23;9.32;;;6.40;99.90;;;;;;5085941;28;20239;-87
2021/01/02 10:56:32;;;;;;;13.82;9.68;;;6.40;99.90;;;;;;5090786;28;20522;-87
2021/01/02 10:58:59;;;;;;;12.90;9.52;;;6.50;99.90;;;;;;5085213;28;20547;-87
2021/01/02 11:01:26;;;;;;;13.75;10.75;;;6.40;99.90;;;;;;5080689;28;20194;-86
2021/01/02 11:03:52;;;;;;;11.20;9.13;;;6.40;99.90;;;;;;5083652;28;20445;-87
2021/01/02 11:06:19;;;;;;;14.02;9.20;;;6.50;99.90;;;;;;5084008;28;20205;-86
2021/01/02 11:08:46;;;;;;;15.15;10.35;;;6.50;99.90;;;;;;5082503;28;20198;-87
2021/01/02 11:11:19;;;;;;;15.10;9.65;;;6.50;99.90;;;;;;5084467;28;20502;-87
2021/01/02 11:13:45;;;;;;;14.23;9.68;;;6.50;99.90;;;;;;5086417;28;20208;-86
2021/01/02 11:16:11;;;;;;;15.57;9.98;;;6.50;99.90;;;;;;5084295;28;20649;-86
2021/01/02 11:18:38;;;;;;;12.35;9.75;;;6.50;99.90;;;;;;5083131;28;20197;-87
2021/01/02 11:21:08;;;;;;;15.10;10.63;;;6.50;99.90;;;;;;5081033;28;20205;-86
2021/01/02 11:23:35;;;;;;;14.15;11.50;;;6.60;99.90;;;;;;5084097;28;20198;-86
2021/01/02 11:26:07;;;;;;;15.57;10.15;;;6.60;99.90;;;;;;5088149;28;20203;-86
2021/01/02 11:28:34;;;;;;;15.23;9.75;;;6.50;99.90;;;;;;5092078;28;20194;-87
2021/01/02 11:31:00;;;;;;;13.65;10.40;;;6.50;99.90;;;;;;5081805;28;20216;-86
2021/01/02 11:33:26;;;;;;;15.98;10.70;;;6.60;99.90;;;;;;5083963;28;20292;-85
2021/01/02 11:35:52;;;;;;;15.60;10.95;;;6.60;99.90;;;;;;5090496;28;20190;-85
2021/01/02 11:38:19;;;;;;;11.65;9.45;;;6.50;99.90;;;;;;5085888;28;20225;-87
2021/01/02 11:40:46;;;;;;;15.10;9.18;;;6.50;99.90;;;;;;5093950;28;20402;-86
2021/01/02 11:43:12;;;;;;;13.18;10.02;;;6.60;99.90;;;;;;5090120;28;20198;-87
2021/01/02 11:45:39;;;;;;;15.48;10.18;;;6.60;99.90;;;;;;5093581;28;20292;-87
2021/01/02 11:48:06;;;;;;;16.42;9.50;;;6.60;99.90;;;;;;5088252;28;20198;-87
2021/01/02 11:50:32;;;;;;;14.18;9.57;;;6.70;99.90;;;;;;5089995;28;20657;-84
2021/01/02 11:52:58;;;;;;;14.98;10.75;;;6.70;99.90;;;;;;5089395;28;20673;-86
2021/01/02 11:55:25;;;;;;;11.25;9.13;;;6.70;99.90;;;;;;5092084;28;20194;-85
2021/01/02 11:57:52;;;;;;;14.20;10.13;;;6.70;99.90;;;;;;5095846;28;20212;-87
2021/01/02 12:00:19;;;;;;;14.32;10.25;;;6.70;99.90;;;;;;5094260;28;20197;-85
2021/01/02 12:02:45;;;;;;;17.38;12.15;;;6.70;99.90;;;;;;5096338;28;20540;-85
2021/01/02 12:05:12;;;;;;;15.43;10.77;;;6.70;99.90;;;;;;5097338;28;20186;-87
2021/01/02 12:07:38;;;;;;;15.95;12.23;;;6.80;99.90;;;;;;5095220;28;20535;-85
2021/01/02 12:10:06;;;;;;;14.35;9.98;;;6.80;99.90;;;;;;5094999;28;20201;-80
2021/01/02 12:12:33;;;;;;;16.58;10.68;;;6.80;99.90;;;;;;5092002;28;20201;-83
2021/01/02 12:15:00;;;;;;;14.40;10.98;;;6.80;99.90;;;;;;5090054;28;20198;-81
2021/01/02 12:17:29;;;;;;;14.48;9.95;;;6.80;99.90;;;;;;5086426;28;20288;-76
2021/01/02 12:19:55;;;;;;;18.17;10.15;;;6.90;99.90;;;;;;5091896;28;20186;-78
2021/01/02 12:22:21;;;;;;;16.13;12.10;;;6.90;99.90;;;;;;5095926;28;20201;-77
2021/01/02 12:24:48;;;;;;;14.88;11.27;;;6.90;99.90;;;;;;5095106;28;20204;-79
2021/01/02 12:27:14;;;;;;;14.98;10.38;;;6.70;99.90;;;;;;5091708;28;20194;-77
2021/01/02 12:29:43;;;;;;;14.20;10.52;;;7.00;99.90;;;;;;5092819;28;20209;-81
2021/01/02 12:32:11;;;;;;;15.23;10.55;;;6.90;99.90;;;;;;5089784;28;20194;-82
2021/01/02 12:34:40;;;;;;;14.32;9.63;;;6.90;99.90;;;;;;5092271;28;20206;-80
2021/01/02 12:37:08;;;;;;;13.40;10.38;;;6.90;99.90;;;;;;5091044;28;20249;-79
2021/01/02 12:39:35;;;;;;;15.45;10.73;;;6.80;99.90;;;;;;5090401;28;20866;-78
2021/01/02 12:42:01;;;;;;;12.10;9.10;;;7.00;99.90;;;;;;5092338;28;20194;-81
2021/01/02 12:44:29;;;;;;;13.80;10.40;;;7.00;99.90;;;;;;5091450;28;20193;-85
2021/01/02 12:46:58;;;;;;;11.43;8.52;;;6.90;99.90;;;;;;5093876;28;20197;-82
2021/01/02 12:49:28;;;;;;;13.80;10.10;;;6.90;99.90;;;;;;5090233;28;20213;-83
2021/01/02 12:51:54;;;;;;;15.15;11.35;;;6.90;99.90;;;;;;5087830;28;20197;-88
2021/01/02 12:54:21;;;;;;;12.15;9.50;;;6.90;99.90;;;;;;5096930;28;20203;-87
2021/01/02 12:56:48;;;;;;;14.70;10.15;;;6.80;99.90;;;;;;5089115;28;20285;-76